Cleveland, Ohio
Traffic Map
Current Weather Conditions
Cleveland, Ohio
Overcast Light Rain
Overcast
69°
Feels Like: 69°
Wind Chill: 69° Ceiling: 4900
Heat Index: 69° Visibility: 10mi
Dew Point: 63° Wind: 18mph
Humidity: 81% Direction: 350° (N)
Pressure: 29.96in Gusts: 0mph
Raw Report DataKBKL 242253Z 35016KT 10SM -RA FEW016 BKN049 OVC070 21/17 A2996 RMK AO2 RAB44 SLP141 P0000 T02060172
Traffic Incident Summary
Active as of:
Severity:
Category:
InformationThere was an issue retrieving the traffic information for this location. Please try a different location or try again shortly.
Advertisements